.
WxDataArchive / Data Records for 2008-07-13
2008-07-12 July 2008 2008-07-14

Data Records for Sunday, 13 July 2008

Time	Temp	Chill	HIndex	Humid	Dewpt	 Wind 	HiWind	WindDir	Rain 	Barom 
-----	----	-----	------	-----	-----	------	------	-------	-----	----- 
00:00	75.1	75.1	75.5	82	69.2	0	0	---	0.00	29.793 
00:05	74.9	74.9	74.9	83	69.4	0	0	---	0.00	29.794 
00:10	74.7	74.7	74.7	83	69.2	0	0	---	0.00	29.787 
00:15	74.6	74.6	74.6	83	69.1	0	0	---	0.00	29.785 
00:20	74.6	74.6	74.6	83	69.1	0	0	---	0.00	29.785 
00:25	74.6	74.6	74.6	83	69.1	0	1	315	0.00	29.785 
00:30	74.6	74.6	74.6	82	68.7	0	0	---	0.00	29.787 
00:35	74.7	74.7	74.7	81	68.5	0	1	315	0.00	29.788 
00:40	74.7	74.7	74.7	81	68.5	0	1	315	0.00	29.788 
00:45	74.7	74.7	74.7	80	68.1	0	1	315	0.00	29.785 
00:50	74.7	74.7	74.7	80	68.1	0	1	315	0.00	29.785 
00:55	74.6	74.6	74.6	80	68.0	0	1	315	0.00	29.786 
01:00	74.6	74.6	74.6	79	67.6	0	0	---	0.00	29.783 
01:05	74.4	74.4	74.4	80	67.8	0	0	---	0.00	29.778 
01:10	74.4	74.4	74.4	80	67.8	0	1	315	0.00	29.779 
01:15	74.4	74.4	74.4	80	67.8	0	0	---	0.00	29.773 
01:20	74.2	74.2	74.2	80	67.6	0	0	---	0.00	29.771 
01:25	74.2	74.2	74.2	79	67.3	0	1	315	0.00	29.770 
01:30	74.0	74.0	74.0	80	67.4	0	1	315	0.00	29.776 
01:35	74.0	74.0	74.0	80	67.4	0	1	315	0.00	29.777 
01:40	74.0	74.0	74.0	80	67.4	0	2	270	0.00	29.772 
01:45	73.9	73.9	73.9	77	66.2	1	4	315	0.00	29.778 
01:50	73.7	73.7	73.7	77	66.0	1	4	315	0.00	29.771 
01:55	73.5	73.5	73.5	76	65.5	1	3	315	0.00	29.772 
02:00	73.2	73.2	73.2	72	63.6	1	4	292	0.00	29.769 
02:05	73.2	73.2	73.2	70	62.8	1	4	0	0.00	29.769 
02:10	73.0	73.0	73.0	70	62.6	1	3	315	0.00	29.767 
02:15	72.8	72.8	72.8	72	63.2	1	4	292	0.00	29.767 
02:20	72.7	72.7	72.7	72	63.1	1	3	292	0.00	29.768 
02:25	72.3	72.3	72.3	69	61.5	1	3	292	0.00	29.768 
02:30	72.1	72.1	72.1	68	60.9	1	3	292	0.00	29.768 
02:35	72.0	72.0	72.0	67	60.4	1	2	292	0.00	29.767 
02:40	71.8	71.8	71.8	63	58.5	1	3	315	0.00	29.768 
02:45	71.8	71.8	71.8	61	57.6	1	3	315	0.00	29.768 
02:50	71.8	71.8	71.8	60	57.2	1	3	315	0.00	29.769 
02:55	71.8	71.8	71.8	62	58.1	0	2	315	0.00	29.768 
03:00	71.6	71.6	71.6	63	58.3	0	2	315	0.00	29.765 
03:05	71.5	71.5	71.5	63	58.2	0	2	315	0.00	29.766 
03:10	71.3	71.3	71.3	63	58.0	1	3	292	0.00	29.766 
03:15	71.1	71.1	71.1	63	57.9	1	3	292	0.00	29.769 
03:20	70.9	70.9	70.9	62	57.2	0	2	315	0.00	29.767 
03:25	70.6	70.6	70.6	61	56.5	1	3	270	0.00	29.769 
03:30	70.4	70.4	70.4	61	56.3	1	4	315	0.00	29.768 
03:35	70.3	70.3	70.3	61	56.2	1	2	292	0.00	29.768 
03:40	70.1	70.1	70.1	61	56.0	0	1	292	0.00	29.766 
03:45	69.9	69.9	69.9	62	56.3	0	1	292	0.00	29.764 
03:50	69.9	69.9	69.9	63	56.7	0	1	292	0.00	29.765 
03:55	69.8	69.8	69.8	61	55.7	1	3	292	0.00	29.764 
04:00	69.8	69.8	69.8	61	55.7	0	2	315	0.00	29.765 
04:05	69.6	69.6	69.6	61	55.5	0	2	315	0.00	29.767 
04:10	69.6	69.6	69.6	61	55.5	0	2	315	0.00	29.769 
04:15	69.4	69.4	69.4	61	55.4	0	2	315	0.00	29.771 
04:20	69.4	69.4	69.4	61	55.4	0	3	270	0.00	29.773 
04:25	69.3	69.3	69.3	61	55.3	0	1	270	0.00	29.773 
04:30	69.3	69.3	69.3	61	55.3	0	2	270	0.00	29.773 
04:35	69.1	69.1	69.1	61	55.1	0	1	270	0.00	29.773 
04:40	69.1	69.1	69.1	62	55.5	0	1	270	0.00	29.774 
04:45	68.9	68.9	68.9	62	55.3	0	0	---	0.00	29.772 
04:50	68.8	68.8	68.8	62	55.2	0	1	270	0.00	29.771 
04:55	68.8	68.8	68.8	62	55.2	0	2	270	0.00	29.772 
05:00	68.8	68.8	68.8	62	55.2	0	3	315	0.00	29.773 
05:05	68.6	68.6	68.6	62	55.0	0	1	315	0.00	29.773 
05:10	68.6	68.6	68.6	63	55.5	0	1	315	0.00	29.774 
05:15	68.4	68.4	68.4	62	54.9	0	3	315	0.00	29.774 
05:20	68.4	68.4	68.4	62	54.9	0	1	315	0.00	29.775 
05:25	68.4	68.4	68.4	63	55.3	0	1	315	0.00	29.775 
05:30	68.3	68.3	68.3	63	55.2	0	1	315	0.00	29.776 
05:35	68.1	68.1	68.1	63	55.0	1	3	315	0.00	29.778 
05:40	68.1	68.1	68.1	62	54.6	1	3	292	0.00	29.779 
05:45	67.9	67.9	67.9	63	54.8	0	2	292	0.00	29.782 
05:50	67.8	67.8	67.8	63	54.7	0	2	292	0.00	29.783 
05:55	67.6	67.6	67.6	63	54.5	0	2	292	0.00	29.778 
06:00	67.3	67.3	67.3	63	54.3	0	2	292	0.00	29.785 
06:05	67.1	67.1	67.1	65	54.9	0	1	292	0.00	29.786 
06:10	66.9	66.9	66.9	65	54.7	0	1	292	0.00	29.788 
06:15	66.8	66.8	66.8	66	55.1	0	1	292	0.00	29.790 
06:20	66.6	66.6	66.6	66	54.9	0	2	292	0.00	29.790 
06:25	66.9	66.9	66.9	66	55.2	0	1	292	0.00	29.790 
06:30	67.1	67.1	67.1	65	54.9	1	2	292	0.00	29.790 
06:35	67.3	67.3	67.3	66	55.5	1	2	292	0.00	29.791 
06:40	67.4	67.4	67.4	65	55.2	1	4	270	0.00	29.791 
06:45	67.6	67.6	67.6	65	55.4	1	3	270	0.00	29.792 
06:50	67.6	67.6	67.6	64	55.0	2	4	292	0.00	29.794 
06:55	67.8	67.8	67.8	65	55.6	2	4	270	0.00	29.793 
07:00	67.8	67.8	67.8	65	55.6	1	4	270	0.00	29.794 
07:05	67.9	67.9	67.9	65	55.7	2	4	270	0.00	29.793 
07:10	67.9	67.9	67.9	65	55.7	2	4	270	0.00	29.793 
07:15	68.1	68.1	68.1	65	55.9	2	3	270	0.00	29.793 
07:20	68.1	68.1	68.1	65	55.9	2	4	270	0.00	29.793 
07:25	68.1	68.1	68.1	65	55.9	2	3	270	0.00	29.793 
07:30	68.3	68.3	68.3	66	56.5	2	4	270	0.00	29.794 
07:35	68.3	68.3	68.3	65	56.1	2	5	292	0.00	29.795 
07:40	68.6	68.6	68.6	67	57.2	1	3	292	0.00	29.797 
07:45	68.9	68.9	68.9	65	56.6	2	4	270	0.00	29.795 
07:50	69.1	69.1	69.1	65	56.8	2	5	270	0.00	29.798 
07:55	69.3	69.3	69.3	67	57.9	2	4	270	0.00	29.799 
08:00	69.6	69.6	69.6	64	56.9	2	4	270	0.00	29.799 
08:05	69.9	69.9	69.9	63	56.7	2	4	270	0.00	29.802 
08:10	70.3	70.3	70.3	64	57.5	1	3	315	0.00	29.802 
08:15	70.6	70.6	70.6	64	57.8	1	2	315	0.00	29.802 
08:20	71.1	71.1	71.1	61	57.0	1	4	248	0.00	29.803 
08:25	71.5	71.5	71.5	62	57.8	1	3	248	0.00	29.801 
08:30	71.8	71.8	71.8	59	56.7	2	4	248	0.00	29.800 
08:35	72.1	72.1	72.1	59	57.0	1	3	248	0.00	29.799 
08:40	72.7	72.7	72.7	59	57.5	1	4	248	0.00	29.796 
08:45	72.8	72.8	72.8	59	57.6	1	4	292	0.00	29.793 
08:50	73.2	73.2	73.2	58	57.5	1	3	270	0.00	29.791 
08:55	73.3	73.3	73.3	57	57.1	2	5	248	0.00	29.792 
09:00	73.3	73.3	73.3	57	57.1	2	4	292	0.00	29.793 
09:05	73.5	73.5	73.5	56	56.8	2	5	248	0.00	29.789 
09:10	74.0	74.0	74.0	56	57.3	1	4	248	0.00	29.788 
09:15	74.4	74.4	74.4	55	57.2	2	3	248	0.00	29.787 
09:20	74.7	74.7	74.7	54	56.9	2	3	270	0.00	29.788 
09:25	74.9	74.9	74.9	54	57.1	1	3	270	0.00	29.788 
09:30	75.3	75.3	77.7	52	56.4	2	4	248	0.00	29.788 
09:35	75.4	75.4	77.8	49	54.9	2	5	270	0.00	29.790 
09:40	75.4	75.4	77.8	49	54.9	3	5	270	0.00	29.791 
09:45	75.6	75.6	77.9	50	55.6	2	6	270	0.00	29.788 
09:50	76.1	76.1	78.1	52	57.2	2	4	270	0.00	29.788 
09:55	76.1	76.1	78.1	47	54.4	3	6	270	0.00	29.787 
10:00	76.3	76.3	78.1	46	54.0	2	5	292	0.00	29.786 
10:05	76.7	76.7	78.3	45	53.7	2	5	270	0.00	29.785 
10:10	76.8	76.8	78.4	46	54.4	2	5	270	0.00	29.783 
10:15	77.0	77.0	78.3	42	52.1	3	7	270	0.00	29.783 
10:20	77.2	77.2	78.5	43	52.9	2	5	270	0.00	29.778 
10:25	77.2	77.2	78.5	43	52.9	3	6	270	0.00	29.774 
10:30	77.7	77.7	78.5	39	50.7	2	5	270	0.00	29.774 
10:35	78.1	78.1	79.0	44	54.4	2	5	248	0.00	29.773 
10:40	78.3	78.3	78.9	41	52.6	2	5	248	0.00	29.773 
10:45	78.3	78.3	79.0	42	53.3	3	6	270	0.00	29.772 
10:50	78.3	78.3	78.9	41	52.6	4	7	270	0.00	29.775 
10:55	78.1	78.1	78.9	43	53.8	2	5	270	0.00	29.773 
11:00	78.1	78.1	78.8	41	52.5	3	7	270	0.00	29.774 
11:05	78.3	78.3	78.8	39	51.3	3	6	270	0.00	29.774 
11:10	78.6	78.6	79.0	40	52.2	3	6	248	0.00	29.771 
11:15	78.8	78.8	79.1	39	51.7	3	7	270	0.00	29.770 
11:20	78.8	78.8	79.0	37	50.3	3	9	270	0.00	29.770 
11:25	79.0	79.0	79.0	35	49.0	3	9	270	0.00	29.769 
11:30	79.0	79.0	79.1	37	50.5	4	7	270	0.00	29.769 
11:35	78.8	78.8	78.9	36	49.6	4	6	292	0.00	29.770 
11:40	79.0	79.0	79.2	38	51.2	4	10	270	0.00	29.770 
11:45	79.0	79.0	79.0	35	49.0	3	6	315	0.00	29.769 
11:50	79.0	79.0	79.2	39	51.9	4	9	270	0.00	29.768 
11:55	78.8	78.8	78.9	36	49.6	3	6	292	0.00	29.766 
12:00	79.0	79.0	79.2	39	51.9	3	6	270	0.00	29.769 
12:05	79.4	79.4	79.5	40	52.9	3	5	270	0.00	29.768 
12:10	79.9	79.9	80.0	42	54.7	2	5	270	0.00	29.762 
12:15	79.8	79.8	79.6	38	51.9	3	7	270	0.00	29.762 
12:20	79.2	79.2	79.4	40	52.8	4	7	270	0.00	29.758 
12:25	79.2	79.2	79.4	40	52.8	3	6	270	0.00	29.757 
12:30	79.4	79.4	79.5	40	52.9	3	5	315	0.00	29.755 
12:35	79.8	79.8	79.7	39	52.6	3	5	270	0.00	29.753 
12:40	79.6	79.6	79.7	41	53.8	3	6	270	0.00	29.750 
12:45	79.8	79.8	79.7	39	52.6	3	6	270	0.00	29.751 
12:50	79.8	79.8	79.8	40	53.3	3	6	248	0.00	29.749 
12:55	79.8	79.8	79.7	39	52.6	3	5	270	0.00	29.748 
13:00	79.4	79.4	79.4	38	51.6	4	6	292	0.00	29.749 
13:05	79.4	79.4	79.5	39	52.3	3	7	270	0.00	29.750 
13:10	79.4	79.4	79.3	37	50.8	4	8	270	0.00	29.746 
13:15	79.2	79.2	79.3	39	52.1	4	7	270	0.00	29.743 
13:20	79.4	79.4	79.5	40	52.9	3	5	270	0.00	29.742 
13:25	79.8	79.8	79.8	40	53.3	3	6	270	0.00	29.740 
13:30	80.1	80.1	80.3	43	55.6	2	5	315	0.00	29.740 
13:35	80.5	80.5	80.0	37	51.8	2	5	270	0.00	29.738 
13:40	79.9	79.9	79.7	38	52.0	3	9	292	0.00	29.742 
13:45	79.9	79.9	79.6	37	51.3	4	9	270	0.00	29.741 
13:50	79.6	79.6	79.5	38	51.7	4	6	270	0.00	29.739 
13:55	79.9	79.9	79.5	35	49.8	5	12	270	0.00	29.741 
14:00	79.8	79.8	79.6	37	51.2	3	6	270	0.00	29.741 
14:05	80.1	80.1	79.8	37	51.5	3	6	270	0.00	29.739 
14:10	80.1	80.1	79.7	36	50.7	4	10	270	0.00	29.739 
14:15	80.1	80.1	79.7	36	50.7	3	6	270	0.00	29.738 
14:20	80.1	80.1	79.8	37	51.5	4	6	270	0.00	29.737 
14:25	80.5	80.5	80.0	37	51.8	3	7	270	0.00	29.731 
14:30	80.5	80.5	79.9	36	51.1	3	9	292	0.00	29.731 
14:35	79.8	79.8	79.6	37	51.2	4	7	270	0.00	29.731 
14:40	79.4	79.4	79.3	37	50.8	3	6	270	0.00	29.732 
14:45	79.2	79.2	79.3	39	52.1	4	7	315	0.00	29.731 
14:50	79.2	79.2	79.3	39	52.1	3	7	270	0.00	29.732 
14:55	79.6	79.6	79.6	39	52.4	4	7	270	0.00	29.729 
15:00	79.8	79.8	79.6	38	51.9	4	9	270	0.00	29.730 
15:05	79.8	79.8	79.7	39	52.6	3	7	270	0.00	29.732 
15:10	79.2	79.2	79.3	39	52.1	3	6	270	0.00	29.733 
15:15	78.6	78.6	79.0	40	52.2	3	9	270	0.00	29.732 
15:20	78.6	78.6	79.2	42	53.6	3	5	270	0.00	29.731 
15:25	79.4	79.4	79.8	43	54.9	3	7	270	0.00	29.731 
15:30	79.6	79.6	79.8	42	54.5	3	6	270	0.00	29.729 
15:35	79.2	79.2	79.6	43	54.7	3	5	270	0.00	29.731 
15:40	79.0	79.0	79.4	41	53.3	3	7	270	0.00	29.731 
15:45	79.0	79.0	79.3	40	52.6	3	7	270	0.00	29.730 
15:50	78.6	78.6	79.2	42	53.6	2	5	270	0.00	29.731 
15:55	78.5	78.5	79.1	41	52.8	3	6	270	0.00	29.731 
16:00	78.5	78.5	79.1	41	52.8	3	8	270	0.00	29.732 
16:05	78.6	78.6	79.0	40	52.2	3	6	270	0.00	29.731 
16:10	78.8	78.8	79.2	40	52.4	4	7	292	0.00	29.733 
16:15	78.8	78.8	79.2	41	53.1	3	8	315	0.00	29.730 
16:20	78.3	78.3	79.1	43	53.9	3	5	270	0.00	29.730 
16:25	77.7	77.7	78.7	43	53.4	3	5	270	0.00	29.732 
16:30	78.1	78.1	78.9	43	53.8	3	6	270	0.00	29.731 
16:35	77.9	77.9	78.7	41	52.3	3	6	292	0.00	29.733 
16:40	78.1	78.1	78.9	43	53.8	2	5	270	0.00	29.733 
16:45	78.1	78.1	78.8	41	52.5	3	6	270	0.00	29.732 
16:50	78.3	78.3	79.1	43	53.9	2	5	270	0.00	29.733 
16:55	78.6	78.6	79.2	42	53.6	3	6	270	0.00	29.733 
17:00	78.1	78.1	78.9	42	53.1	3	5	270	0.00	29.734 
17:05	78.1	78.1	78.8	41	52.5	2	6	270	0.00	29.736 
17:10	78.1	78.1	78.8	41	52.5	3	6	270	0.00	29.734 
17:15	78.1	78.1	78.8	41	52.5	2	5	270	0.00	29.733 
17:20	77.9	77.9	78.7	41	52.3	3	6	270	0.00	29.734 
17:25	77.9	77.9	78.7	41	52.3	3	5	270	0.00	29.736 
17:30	78.1	78.1	78.7	39	51.1	2	5	270	0.00	29.740 
17:35	78.1	78.1	78.7	38	50.4	2	6	292	0.00	29.740 
17:40	77.9	77.9	78.6	38	50.2	2	5	270	0.00	29.740 
17:45	77.4	77.4	78.4	39	50.5	2	5	292	0.00	29.743 
17:50	77.6	77.6	78.5	39	50.7	2	5	315	0.00	29.741 
17:55	77.6	77.6	78.5	40	51.3	2	4	315	0.00	29.744 
18:00	77.4	77.4	78.5	41	51.8	2	5	270	0.00	29.745 
18:05	77.2	77.2	78.4	41	51.7	2	5	292	0.00	29.745 
18:10	77.0	77.0	78.3	41	51.5	3	6	270	0.00	29.746 
18:15	77.0	77.0	78.2	40	50.8	2	4	315	0.00	29.747 
18:20	76.8	76.8	78.2	42	51.9	1	4	292	0.00	29.747 
18:25	76.8	76.8	78.2	41	51.3	2	4	270	0.00	29.749 
18:30	76.7	76.7	78.1	40	50.5	3	7	270	0.00	29.752 
18:35	76.5	76.5	78.0	40	50.4	2	5	292	0.00	29.755 
18:40	76.5	76.5	78.1	41	51.0	2	6	270	0.00	29.757 
18:45	76.3	76.3	77.9	40	50.2	1	5	270	0.00	29.759 
18:50	76.1	76.1	77.9	41	50.7	3	5	270	0.00	29.760 
18:55	76.0	76.0	77.9	41	50.6	2	5	248	0.00	29.759 
19:00	75.6	75.6	77.8	43	51.5	2	4	270	0.00	29.762 
19:05	75.4	75.4	77.7	43	51.3	1	2	338	0.00	29.763 
19:10	75.4	75.4	77.7	43	51.3	1	3	315	0.00	29.763 
19:15	75.3	75.3	77.6	42	50.6	2	4	270	0.00	29.764 
19:20	75.1	75.1	77.6	43	51.1	2	4	270	0.00	29.764 
19:25	74.9	74.9	74.9	43	50.9	2	4	270	0.00	29.765 
19:30	74.7	74.7	74.7	43	50.7	2	3	292	0.00	29.765 
19:35	74.6	74.6	74.6	44	51.2	1	3	292	0.00	29.765 
19:40	74.2	74.2	74.2	44	50.9	1	3	292	0.00	29.767 
19:45	74.0	74.0	74.0	46	51.9	1	3	292	0.00	29.769 
19:50	73.9	73.9	73.9	46	51.8	0	2	292	0.00	29.771 
19:55	73.5	73.5	73.5	47	52.0	0	1	292	0.00	29.771 
20:00	73.2	73.2	73.2	48	52.3	0	1	292	0.00	29.773 
20:05	73.0	73.0	73.0	48	52.1	0	2	292	0.00	29.773 
20:10	72.8	72.8	72.8	48	52.0	0	1	292	0.00	29.774 
20:15	72.7	72.7	72.7	49	52.4	0	1	292	0.00	29.775 
20:20	72.3	72.3	72.3	50	52.6	0	1	292	0.00	29.775 
20:25	72.0	72.0	72.0	50	52.3	0	1	292	0.00	29.777 
20:30	71.6	71.6	71.6	51	52.5	0	1	292	0.00	29.777 
20:35	71.3	71.3	71.3	52	52.8	0	0	---	0.00	29.777 
20:40	70.9	70.9	70.9	53	52.9	0	0	---	0.00	29.777 
20:45	70.6	70.6	70.6	53	52.6	0	0	---	0.00	29.779 
20:50	70.1	70.1	70.1	54	52.7	0	0	---	0.00	29.782 
20:55	69.8	69.8	69.8	55	52.9	0	0	---	0.00	29.783 
21:00	69.4	69.4	69.4	56	53.0	0	0	---	0.00	29.785 
21:05	69.1	69.1	69.1	57	53.2	0	0	---	0.00	29.787 
21:10	68.8	68.8	68.8	57	52.9	0	0	---	0.00	29.788 
21:15	68.4	68.4	68.4	58	53.0	0	0	---	0.00	29.790 
21:20	68.3	68.3	68.3	59	53.4	0	0	---	0.00	29.791 
21:25	68.1	68.1	68.1	58	52.8	0	0	---	0.00	29.793 
21:30	67.9	67.9	67.9	59	53.0	0	0	---	0.00	29.794 
21:35	67.8	67.8	67.8	59	52.9	0	0	---	0.00	29.793 
21:40	67.6	67.6	67.6	59	52.8	0	0	---	0.00	29.793 
21:45	67.4	67.4	67.4	60	53.0	0	0	---	0.00	29.795 
21:50	67.3	67.3	67.3	61	53.4	0	0	---	0.00	29.795 
21:55	67.3	67.3	67.3	60	52.9	0	0	---	0.00	29.796 
22:00	67.3	67.3	67.3	60	52.9	0	0	---	0.00	29.796 
22:05	67.3	67.3	67.3	61	53.4	0	0	---	0.00	29.795 
22:10	67.6	67.6	67.6	60	53.2	0	1	292	0.00	29.795 
22:15	67.6	67.6	67.6	59	52.8	0	1	292	0.00	29.793 
22:20	68.1	68.1	68.1	58	52.8	0	2	292	0.00	29.794 
22:25	68.4	68.4	68.4	58	53.0	0	1	292	0.00	29.795 
22:30	68.3	68.3	68.3	59	53.4	0	0	---	0.00	29.795 
22:35	68.1	68.1	68.1	59	53.2	0	1	292	0.00	29.794 
22:40	67.9	67.9	67.9	59	53.0	0	1	292	0.00	29.793 
22:45	67.8	67.8	67.8	60	53.4	0	1	292	0.00	29.793 
22:50	67.6	67.6	67.6	60	53.2	0	1	292	0.00	29.793 
22:55	67.4	67.4	67.4	60	53.0	0	1	292	0.00	29.794 
23:00	67.3	67.3	67.3	60	52.9	0	2	270	0.00	29.796 
23:05	67.3	67.3	67.3	60	52.9	0	1	270	0.00	29.794 
23:10	67.1	67.1	67.1	60	52.7	0	1	270	0.00	29.796 
23:15	67.1	67.1	67.1	60	52.7	0	1	270	0.00	29.795 
23:20	67.1	67.1	67.1	61	53.2	0	1	270	0.00	29.797 
23:25	67.1	67.1	67.1	60	52.7	0	1	270	0.00	29.799 
23:30	67.4	67.4	67.4	60	53.0	0	1	270	0.00	29.798 
23:35	67.4	67.4	67.4	60	53.0	0	2	270	0.00	29.798 
23:40	67.6	67.6	67.6	59	52.8	0	1	270	0.00	29.799 
23:45	67.4	67.4	67.4	59	52.6	0	1	270	0.00	29.797 
23:50	67.4	67.4	67.4	60	53.0	0	1	270	0.00	29.797 
23:55	67.3	67.3	67.3	60	52.9	0	1	270	0.00	29.798 

CoCoRaHS
IN-AL-39
A2 Web Hosting
Creative Commons License
GoDaddy
Look for:

loaded 2017-10-17 18:15:35 • last modified 2010-11-18 10:43:29
Privacy PolicyDisclaimer
• wx.awcolley.com is powered by PmWiki v.2002016 •
• all content (unless otherwise noted) © 2017 A W Colley